sensor_id;sensor_type;location;lat;lon;timestamp;P1;durP1;ratioP1;P2;durP2;ratioP2
78555;SDS011;67851;51.354;7.744;2023-08-07T00:03:42;4.70;;;2.55;;
78555;SDS011;67851;51.354;7.744;2023-08-07T00:06:08;4.32;;;2.58;;
78555;SDS011;67851;51.354;7.744;2023-08-07T00:20:40;4.15;;;2.90;;
78555;SDS011;67851;51.354;7.744;2023-08-07T00:23:50;3.60;;;2.58;;
78555;SDS011;67851;51.354;7.744;2023-08-07T00:27:51;3.35;;;2.45;;
78555;SDS011;67851;51.354;7.744;2023-08-07T00:35:25;2.47;;;2.15;;
78555;SDS011;67851;51.354;7.744;2023-08-07T00:39:15;5.30;;;2.35;;
78555;SDS011;67851;51.354;7.744;2023-08-07T00:49:45;4.25;;;1.80;;
78555;SDS011;67851;51.354;7.744;2023-08-07T01:00:57;3.58;;;1.20;;
78555;SDS011;67851;51.354;7.744;2023-08-07T01:08:27;1.50;;;1.30;;
78555;SDS011;67851;51.354;7.744;2023-08-07T01:18:21;1.67;;;1.17;;
78555;SDS011;67851;51.354;7.744;2023-08-07T01:20:51;2.70;;;1.30;;
78555;SDS011;67851;51.354;7.744;2023-08-07T01:27:00;2.33;;;2.08;;
78555;SDS011;67851;51.354;7.744;2023-08-07T01:30:02;3.17;;;2.10;;
78555;SDS011;67851;51.354;7.744;2023-08-07T01:36:51;6.53;;;4.80;;
78555;SDS011;67851;51.354;7.744;2023-08-07T01:39:26;8.15;;;6.55;;
78555;SDS011;67851;51.354;7.744;2023-08-07T01:42:23;13.27;;;7.50;;
78555;SDS011;67851;51.354;7.744;2023-08-07T01:53:13;8.23;;;6.07;;
78555;SDS011;67851;51.354;7.744;2023-08-07T02:07:57;6.90;;;5.05;;
78555;SDS011;67851;51.354;7.744;2023-08-07T02:10:27;7.43;;;6.15;;
78555;SDS011;67851;51.354;7.744;2023-08-07T02:14:18;9.80;;;6.65;;
78555;SDS011;67851;51.354;7.744;2023-08-07T02:44:17;13.68;;;8.10;;
78555;SDS011;67851;51.354;7.744;2023-08-07T03:07:38;5.30;;;3.70;;
78555;SDS011;67851;51.354;7.744;2023-08-07T03:11:34;4.07;;;2.60;;
78555;SDS011;67851;51.354;7.744;2023-08-07T03:19:05;10.50;;;5.22;;
78555;SDS011;67851;51.354;7.744;2023-08-07T03:21:33;6.50;;;4.70;;
78555;SDS011;67851;51.354;7.744;2023-08-07T03:24:34;5.70;;;3.20;;
78555;SDS011;67851;51.354;7.744;2023-08-07T03:26:59;5.45;;;3.63;;
78555;SDS011;67851;51.354;7.744;2023-08-07T03:29:34;3.15;;;2.30;;
78555;SDS011;67851;51.354;7.744;2023-08-07T03:43:39;11.82;;;6.93;;
78555;SDS011;67851;51.354;7.744;2023-08-07T03:54:00;13.05;;;8.35;;
78555;SDS011;67851;51.354;7.744;2023-08-07T03:56:26;11.48;;;8.45;;
78555;SDS011;67851;51.354;7.744;2023-08-07T03:58:51;13.65;;;9.23;;
78555;SDS011;67851;51.354;7.744;2023-08-07T04:01:20;8.75;;;6.82;;
78555;SDS011;67851;51.354;7.744;2023-08-07T04:03:48;10.52;;;7.45;;
78555;SDS011;67851;51.354;7.744;2023-08-07T04:06:15;8.98;;;6.72;;
78555;SDS011;67851;51.354;7.744;2023-08-07T04:08:42;12.43;;;8.82;;
78555;SDS011;67851;51.354;7.744;2023-08-07T04:11:09;9.95;;;6.25;;
78555;SDS011;67851;51.354;7.744;2023-08-07T04:13:35;8.98;;;6.68;;
78555;SDS011;67851;51.354;7.744;2023-08-07T04:16:01;10.77;;;7.43;;
78555;SDS011;67851;51.354;7.744;2023-08-07T04:18:29;13.15;;;8.32;;
78555;SDS011;67851;51.354;7.744;2023-08-07T04:20:55;15.13;;;9.10;;
78555;SDS011;67851;51.354;7.744;2023-08-07T04:23:21;17.55;;;10.45;;
78555;SDS011;67851;51.354;7.744;2023-08-07T04:25:50;14.70;;;10.55;;
78555;SDS011;67851;51.354;7.744;2023-08-07T04:28:17;19.63;;;11.15;;
78555;SDS011;67851;51.354;7.744;2023-08-07T04:30:43;25.55;;;15.23;;
78555;SDS011;67851;51.354;7.744;2023-08-07T04:33:10;26.30;;;15.48;;
78555;SDS011;67851;51.354;7.744;2023-08-07T04:47:03;33.38;;;17.00;;
78555;SDS011;67851;51.354;7.744;2023-08-07T04:49:28;41.47;;;20.27;;
78555;SDS011;67851;51.354;7.744;2023-08-07T04:51:55;41.58;;;21.08;;
78555;SDS011;67851;51.354;7.744;2023-08-07T04:54:21;42.92;;;20.42;;
78555;SDS011;67851;51.354;7.744;2023-08-07T04:56:46;49.40;;;23.77;;
78555;SDS011;67851;51.354;7.744;2023-08-07T04:59:12;46.40;;;21.45;;
78555;SDS011;67851;51.354;7.744;2023-08-07T05:01:38;53.45;;;22.65;;
78555;SDS011;67851;51.354;7.744;2023-08-07T05:04:08;49.80;;;22.75;;
78555;SDS011;67851;51.354;7.744;2023-08-07T05:06:34;26.30;;;12.95;;
78555;SDS011;67851;51.354;7.744;2023-08-07T05:09:00;50.10;;;22.17;;
78555;SDS011;67851;51.354;7.744;2023-08-07T05:11:25;47.15;;;22.17;;
78555;SDS011;67851;51.354;7.744;2023-08-07T05:13:51;51.90;;;21.90;;
78555;SDS011;67851;51.354;7.744;2023-08-07T05:16:16;55.38;;;22.85;;
78555;SDS011;67851;51.354;7.744;2023-08-07T05:18:43;45.10;;;20.17;;
78555;SDS011;67851;51.354;7.744;2023-08-07T05:21:09;38.83;;;18.75;;
78555;SDS011;67851;51.354;7.744;2023-08-07T05:23:34;38.67;;;18.30;;
78555;SDS011;67851;51.354;7.744;2023-08-07T05:26:00;48.05;;;18.40;;
78555;SDS011;67851;51.354;7.744;2023-08-07T05:28:25;44.85;;;19.63;;
78555;SDS011;67851;51.354;7.744;2023-08-07T05:30:51;40.10;;;18.10;;
78555;SDS011;67851;51.354;7.744;2023-08-07T05:33:16;42.33;;;19.27;;
78555;SDS011;67851;51.354;7.744;2023-08-07T05:35:42;39.05;;;17.67;;
78555;SDS011;67851;51.354;7.744;2023-08-07T05:38:07;48.38;;;19.88;;
78555;SDS011;67851;51.354;7.744;2023-08-07T05:40:33;38.53;;;17.35;;
78555;SDS011;67851;51.354;7.744;2023-08-07T05:43:01;46.70;;;18.70;;
78555;SDS011;67851;51.354;7.744;2023-08-07T05:45:31;59.67;;;21.40;;
78555;SDS011;67851;51.354;7.744;2023-08-07T05:47:56;44.22;;;19.33;;
78555;SDS011;67851;51.354;7.744;2023-08-07T05:50:22;41.83;;;18.48;;
78555;SDS011;67851;51.354;7.744;2023-08-07T05:52:48;42.40;;;18.20;;
78555;SDS011;67851;51.354;7.744;2023-08-07T05:55:14;29.13;;;13.18;;
78555;SDS011;67851;51.354;7.744;2023-08-07T05:57:39;24.00;;;11.25;;
78555;SDS011;67851;51.354;7.744;2023-08-07T06:00:05;21.98;;;9.52;;
78555;SDS011;67851;51.354;7.744;2023-08-07T06:02:39;20.50;;;9.40;;
78555;SDS011;67851;51.354;7.744;2023-08-07T06:05:04;19.08;;;8.30;;
78555;SDS011;67851;51.354;7.744;2023-08-07T06:07:30;16.48;;;7.18;;
78555;SDS011;67851;51.354;7.744;2023-08-07T06:09:55;14.90;;;7.82;;
78555;SDS011;67851;51.354;7.744;2023-08-07T06:12:21;13.40;;;5.97;;
78555;SDS011;67851;51.354;7.744;2023-08-07T06:14:46;17.60;;;8.73;;
78555;SDS011;67851;51.354;7.744;2023-08-07T06:17:12;16.25;;;7.35;;
78555;SDS011;67851;51.354;7.744;2023-08-07T06:19:37;16.60;;;7.63;;
78555;SDS011;67851;51.354;7.744;2023-08-07T06:22:03;11.30;;;6.45;;
78555;SDS011;67851;51.354;7.744;2023-08-07T06:24:28;9.38;;;5.72;;
78555;SDS011;67851;51.354;7.744;2023-08-07T06:26:53;6.25;;;3.78;;
78555;SDS011;67851;51.354;7.744;2023-08-07T06:29:19;8.57;;;4.88;;
78555;SDS011;67851;51.354;7.744;2023-08-07T06:31:44;6.80;;;4.07;;
78555;SDS011;67851;51.354;7.744;2023-08-07T06:34:10;7.25;;;4.07;;
78555;SDS011;67851;51.354;7.744;2023-08-07T06:36:35;10.38;;;4.80;;
78555;SDS011;67851;51.354;7.744;2023-08-07T06:39:01;6.63;;;5.00;;
78555;SDS011;67851;51.354;7.744;2023-08-07T06:41:26;7.13;;;4.65;;
78555;SDS011;67851;51.354;7.744;2023-08-07T06:43:51;5.60;;;3.13;;
78555;SDS011;67851;51.354;7.744;2023-08-07T06:46:18;4.53;;;3.53;;
78555;SDS011;67851;51.354;7.744;2023-08-07T06:48:49;3.78;;;2.70;;
78555;SDS011;67851;51.354;7.744;2023-08-07T06:51:14;7.43;;;3.50;;
78555;SDS011;67851;51.354;7.744;2023-08-07T06:53:41;3.15;;;2.15;;
78555;SDS011;67851;51.354;7.744;2023-08-07T06:56:07;5.20;;;3.17;;
78555;SDS011;67851;51.354;7.744;2023-08-07T06:58:32;8.23;;;3.78;;
78555;SDS011;67851;51.354;7.744;2023-08-07T07:00:58;5.00;;;3.38;;
78555;SDS011;67851;51.354;7.744;2023-08-07T07:03:23;5.38;;;3.08;;
78555;SDS011;67851;51.354;7.744;2023-08-07T07:05:49;4.85;;;2.42;;
78555;SDS011;67851;51.354;7.744;2023-08-07T07:08:15;4.13;;;3.17;;
78555;SDS011;67851;51.354;7.744;2023-08-07T07:10:40;5.30;;;3.25;;
78555;SDS011;67851;51.354;7.744;2023-08-07T07:13:06;6.00;;;3.75;;
78555;SDS011;67851;51.354;7.744;2023-08-07T07:15:34;11.63;;;6.15;;
78555;SDS011;67851;51.354;7.744;2023-08-07T07:18:00;8.88;;;5.22;;
78555;SDS011;67851;51.354;7.744;2023-08-07T07:20:25;8.77;;;4.85;;
78555;SDS011;67851;51.354;7.744;2023-08-07T07:22:52;8.00;;;5.07;;
78555;SDS011;67851;51.354;7.744;2023-08-07T07:25:17;9.68;;;6.15;;
78555;SDS011;67851;51.354;7.744;2023-08-07T07:27:43;14.93;;;7.63;;
78555;SDS011;67851;51.354;7.744;2023-08-07T07:30:08;14.55;;;8.10;;
78555;SDS011;67851;51.354;7.744;2023-08-07T07:32:34;23.60;;;10.82;;
78555;SDS011;67851;51.354;7.744;2023-08-07T07:35:01;22.58;;;12.05;;
78555;SDS011;67851;51.354;7.744;2023-08-07T07:37:26;25.73;;;14.23;;
78555;SDS011;67851;51.354;7.744;2023-08-07T07:39:52;26.75;;;13.80;;
78555;SDS011;67851;51.354;7.744;2023-08-07T07:42:17;16.30;;;10.32;;
78555;SDS011;67851;51.354;7.744;2023-08-07T07:44:43;13.90;;;8.68;;
78555;SDS011;67851;51.354;7.744;2023-08-07T07:47:08;11.75;;;7.38;;
78555;SDS011;67851;51.354;7.744;2023-08-07T07:49:35;12.50;;;7.45;;
78555;SDS011;67851;51.354;7.744;2023-08-07T07:52:01;16.20;;;9.55;;
78555;SDS011;67851;51.354;7.744;2023-08-07T07:54:27;20.60;;;11.40;;
78555;SDS011;67851;51.354;7.744;2023-08-07T07:56:53;15.90;;;10.57;;
78555;SDS011;67851;51.354;7.744;2023-08-07T07:59:20;21.52;;;13.25;;
78555;SDS011;67851;51.354;7.744;2023-08-07T08:01:45;24.70;;;12.68;;
78555;SDS011;67851;51.354;7.744;2023-08-07T08:04:11;19.92;;;11.25;;
78555;SDS011;67851;51.354;7.744;2023-08-07T08:06:36;11.98;;;7.63;;
78555;SDS011;67851;51.354;7.744;2023-08-07T08:09:02;8.45;;;6.35;;
78555;SDS011;67851;51.354;7.744;2023-08-07T08:11:29;10.88;;;6.50;;
78555;SDS011;67851;51.354;7.744;2023-08-07T08:13:55;5.78;;;4.50;;
78555;SDS011;67851;51.354;7.744;2023-08-07T08:16:21;5.28;;;3.63;;
78555;SDS011;67851;51.354;7.744;2023-08-07T08:18:48;10.60;;;6.60;;
78555;SDS011;67851;51.354;7.744;2023-08-07T08:21:13;8.68;;;6.00;;
78555;SDS011;67851;51.354;7.744;2023-08-07T08:23:39;8.95;;;6.25;;
78555;SDS011;67851;51.354;7.744;2023-08-07T08:26:04;8.90;;;4.60;;
78555;SDS011;67851;51.354;7.744;2023-08-07T08:28:30;8.75;;;5.15;;
78555;SDS011;67851;51.354;7.744;2023-08-07T08:30:55;7.28;;;4.60;;
78555;SDS011;67851;51.354;7.744;2023-08-07T08:33:20;6.53;;;4.68;;
78555;SDS011;67851;51.354;7.744;2023-08-07T08:35:46;6.78;;;4.90;;
78555;SDS011;67851;51.354;7.744;2023-08-07T08:38:11;7.05;;;4.05;;
78555;SDS011;67851;51.354;7.744;2023-08-07T08:40:37;5.22;;;3.97;;
78555;SDS011;67851;51.354;7.744;2023-08-07T08:43:03;4.60;;;3.47;;
78555;SDS011;67851;51.354;7.744;2023-08-07T08:45:31;5.95;;;4.00;;
78555;SDS011;67851;51.354;7.744;2023-08-07T08:48:03;4.90;;;3.88;;
78555;SDS011;67851;51.354;7.744;2023-08-07T08:50:29;4.70;;;3.72;;
78555;SDS011;67851;51.354;7.744;2023-08-07T08:52:55;9.45;;;5.93;;
78555;SDS011;67851;51.354;7.744;2023-08-07T08:55:21;14.27;;;9.70;;
78555;SDS011;67851;51.354;7.744;2023-08-07T08:57:47;12.55;;;7.88;;
78555;SDS011;67851;51.354;7.744;2023-08-07T09:00:15;13.55;;;9.30;;
78555;SDS011;67851;51.354;7.744;2023-08-07T09:02:45;16.10;;;9.63;;
78555;SDS011;67851;51.354;7.744;2023-08-07T09:05:15;17.63;;;10.48;;
78555;SDS011;67851;51.354;7.744;2023-08-07T09:07:43;10.98;;;6.70;;
78555;SDS011;67851;51.354;7.744;2023-08-07T09:10:11;10.18;;;5.18;;
78555;SDS011;67851;51.354;7.744;2023-08-07T09:12:40;8.18;;;5.30;;
78555;SDS011;67851;51.354;7.744;2023-08-07T09:15:07;7.38;;;3.92;;
78555;SDS011;67851;51.354;7.744;2023-08-07T09:17:35;10.45;;;4.28;;
78555;SDS011;67851;51.354;7.744;2023-08-07T09:20:05;8.52;;;5.00;;
78555;SDS011;67851;51.354;7.744;2023-08-07T09:22:33;11.02;;;3.75;;
78555;SDS011;67851;51.354;7.744;2023-08-07T09:24:59;8.77;;;4.05;;
78555;SDS011;67851;51.354;7.744;2023-08-07T09:27:25;11.68;;;3.75;;
78555;SDS011;67851;51.354;7.744;2023-08-07T09:29:50;8.05;;;3.30;;
78555;SDS011;67851;51.354;7.744;2023-08-07T09:32:16;4.75;;;1.90;;
78555;SDS011;67851;51.354;7.744;2023-08-07T09:34:45;4.40;;;2.30;;
78555;SDS011;67851;51.354;7.744;2023-08-07T09:37:10;8.60;;;3.03;;
78555;SDS011;67851;51.354;7.744;2023-08-07T09:39:36;7.07;;;2.83;;
78555;SDS011;67851;51.354;7.744;2023-08-07T09:42:05;10.82;;;3.28;;
78555;SDS011;67851;51.354;7.744;2023-08-07T09:44:36;7.90;;;3.38;;
78555;SDS011;67851;51.354;7.744;2023-08-07T09:47:14;9.40;;;4.43;;
78555;SDS011;67851;51.354;7.744;2023-08-07T09:49:40;11.82;;;4.82;;
78555;SDS011;67851;51.354;7.744;2023-08-07T09:52:06;10.80;;;5.13;;
78555;SDS011;67851;51.354;7.744;2023-08-07T09:54:36;16.35;;;6.05;;
78555;SDS011;67851;51.354;7.744;2023-08-07T09:57:02;17.33;;;5.43;;
78555;SDS011;67851;51.354;7.744;2023-08-07T09:59:28;15.10;;;5.47;;
78555;SDS011;67851;51.354;7.744;2023-08-07T10:01:54;16.65;;;6.07;;
78555;SDS011;67851;51.354;7.744;2023-08-07T10:04:23;13.40;;;6.00;;
78555;SDS011;67851;51.354;7.744;2023-08-07T10:06:50;13.32;;;6.47;;
78555;SDS011;67851;51.354;7.744;2023-08-07T10:09:16;21.77;;;8.20;;
78555;SDS011;67851;51.354;7.744;2023-08-07T10:11:42;20.70;;;9.75;;
78555;SDS011;67851;51.354;7.744;2023-08-07T10:14:08;20.73;;;10.82;;
78555;SDS011;67851;51.354;7.744;2023-08-07T10:16:34;24.67;;;11.85;;
78555;SDS011;67851;51.354;7.744;2023-08-07T10:19:04;21.15;;;10.45;;
78555;SDS011;67851;51.354;7.744;2023-08-07T10:21:30;25.17;;;10.02;;
78555;SDS011;67851;51.354;7.744;2023-08-07T10:23:58;19.42;;;10.18;;
78555;SDS011;67851;51.354;7.744;2023-08-07T10:26:25;25.20;;;9.73;;
78555;SDS011;67851;51.354;7.744;2023-08-07T10:28:51;24.67;;;9.73;;
78555;SDS011;67851;51.354;7.744;2023-08-07T10:31:18;29.13;;;10.30;;
78555;SDS011;67851;51.354;7.744;2023-08-07T10:33:46;21.83;;;9.40;;
78555;SDS011;67851;51.354;7.744;2023-08-07T10:36:11;23.98;;;9.70;;
78555;SDS011;67851;51.354;7.744;2023-08-07T10:38:38;18.85;;;8.93;;
78555;SDS011;67851;51.354;7.744;2023-08-07T10:41:07;23.05;;;9.20;;
78555;SDS011;67851;51.354;7.744;2023-08-07T10:43:41;24.25;;;7.32;;
78555;SDS011;67851;51.354;7.744;2023-08-07T10:46:09;15.82;;;7.88;;
78555;SDS011;67851;51.354;7.744;2023-08-07T10:48:39;15.68;;;8.00;;
78555;SDS011;67851;51.354;7.744;2023-08-07T10:51:05;11.32;;;5.78;;
78555;SDS011;67851;51.354;7.744;2023-08-07T10:53:36;11.00;;;4.35;;
78555;SDS011;67851;51.354;7.744;2023-08-07T10:56:11;8.27;;;3.30;;
78555;SDS011;67851;51.354;7.744;2023-08-07T10:58:41;5.90;;;2.85;;
78555;SDS011;67851;51.354;7.744;2023-08-07T11:04:02;10.02;;;4.10;;
78555;SDS011;67851;51.354;7.744;2023-08-07T11:06:31;15.73;;;5.07;;
78555;SDS011;67851;51.354;7.744;2023-08-07T11:09:01;11.00;;;4.57;;
78555;SDS011;67851;51.354;7.744;2023-08-07T11:11:44;9.75;;;3.80;;
78555;SDS011;67851;51.354;7.744;2023-08-07T11:14:16;32.67;;;5.15;;
78555;SDS011;67851;51.354;7.744;2023-08-07T11:16:43;13.25;;;3.80;;
78555;SDS011;67851;51.354;7.744;2023-08-07T11:19:11;12.50;;;3.70;;
78555;SDS011;67851;51.354;7.744;2023-08-07T11:21:39;14.88;;;3.90;;
78555;SDS011;67851;51.354;7.744;2023-08-07T11:24:05;15.77;;;4.47;;
78555;SDS011;67851;51.354;7.744;2023-08-07T11:26:31;11.30;;;3.67;;
78555;SDS011;67851;51.354;7.744;2023-08-07T11:28:56;11.27;;;4.15;;
78555;SDS011;67851;51.354;7.744;2023-08-07T11:31:22;9.45;;;3.30;;
78555;SDS011;67851;51.354;7.744;2023-08-07T11:33:54;14.30;;;4.30;;
78555;SDS011;67851;51.354;7.744;2023-08-07T11:36:19;12.75;;;4.32;;
78555;SDS011;67851;51.354;7.744;2023-08-07T11:38:45;16.20;;;5.28;;
78555;SDS011;67851;51.354;7.744;2023-08-07T11:41:12;9.52;;;3.95;;
78555;SDS011;67851;51.354;7.744;2023-08-07T11:43:39;14.02;;;4.50;;
78555;SDS011;67851;51.354;7.744;2023-08-07T11:46:12;12.98;;;4.18;;
78555;SDS011;67851;51.354;7.744;2023-08-07T11:48:44;11.48;;;3.63;;
78555;SDS011;67851;51.354;7.744;2023-08-07T11:51:13;12.68;;;4.13;;
78555;SDS011;67851;51.354;7.744;2023-08-07T11:53:39;9.25;;;2.90;;
78555;SDS011;67851;51.354;7.744;2023-08-07T11:56:06;11.63;;;3.70;;
78555;SDS011;67851;51.354;7.744;2023-08-07T11:58:39;12.15;;;3.85;;
78555;SDS011;67851;51.354;7.744;2023-08-07T12:01:09;8.00;;;2.42;;
78555;SDS011;67851;51.354;7.744;2023-08-07T12:03:36;7.32;;;3.00;;
78555;SDS011;67851;51.354;7.744;2023-08-07T12:06:04;9.65;;;3.20;;
78555;SDS011;67851;51.354;7.744;2023-08-07T12:08:37;14.02;;;3.60;;
78555;SDS011;67851;51.354;7.744;2023-08-07T12:11:04;10.13;;;2.88;;
78555;SDS011;67851;51.354;7.744;2023-08-07T12:13:37;13.88;;;3.10;;
78555;SDS011;67851;51.354;7.744;2023-08-07T12:16:04;7.90;;;2.92;;
78555;SDS011;67851;51.354;7.744;2023-08-07T12:18:31;17.42;;;3.53;;
78555;SDS011;67851;51.354;7.744;2023-08-07T12:20:58;14.45;;;2.97;;
78555;SDS011;67851;51.354;7.744;2023-08-07T12:23:24;11.52;;;3.22;;
78555;SDS011;67851;51.354;7.744;2023-08-07T12:25:50;11.63;;;3.40;;
78555;SDS011;67851;51.354;7.744;2023-08-07T12:28:17;12.63;;;3.45;;
78555;SDS011;67851;51.354;7.744;2023-08-07T12:31:06;14.18;;;3.65;;
78555;SDS011;67851;51.354;7.744;2023-08-07T12:33:32;11.45;;;3.78;;
78555;SDS011;67851;51.354;7.744;2023-08-07T12:35:58;14.02;;;4.05;;
78555;SDS011;67851;51.354;7.744;2023-08-07T12:38:23;10.30;;;3.38;;
78555;SDS011;67851;51.354;7.744;2023-08-07T12:40:49;12.18;;;4.10;;
78555;SDS011;67851;51.354;7.744;2023-08-07T12:43:15;9.75;;;2.88;;
78555;SDS011;67851;51.354;7.744;2023-08-07T12:45:40;9.27;;;3.00;;
78555;SDS011;67851;51.354;7.744;2023-08-07T12:48:06;9.00;;;2.58;;
78555;SDS011;67851;51.354;7.744;2023-08-07T12:50:32;7.75;;;2.53;;
78555;SDS011;67851;51.354;7.744;2023-08-07T12:52:57;8.00;;;2.38;;
78555;SDS011;67851;51.354;7.744;2023-08-07T12:55:23;10.40;;;2.78;;
78555;SDS011;67851;51.354;7.744;2023-08-07T12:57:49;13.13;;;2.80;;
78555;SDS011;67851;51.354;7.744;2023-08-07T13:00:15;10.00;;;3.35;;
78555;SDS011;67851;51.354;7.744;2023-08-07T13:02:41;7.47;;;2.20;;
78555;SDS011;67851;51.354;7.744;2023-08-07T13:05:08;6.70;;;2.28;;
78555;SDS011;67851;51.354;7.744;2023-08-07T13:07:34;9.13;;;2.30;;
78555;SDS011;67851;51.354;7.744;2023-08-07T13:10:00;9.07;;;2.40;;
78555;SDS011;67851;51.354;7.744;2023-08-07T13:12:26;8.98;;;2.40;;
78555;SDS011;67851;51.354;7.744;2023-08-07T13:14:51;11.02;;;2.92;;
78555;SDS011;67851;51.354;7.744;2023-08-07T13:17:17;7.18;;;2.50;;
78555;SDS011;67851;51.354;7.744;2023-08-07T13:19:43;7.32;;;2.45;;
78555;SDS011;67851;51.354;7.744;2023-08-07T13:22:08;8.80;;;2.60;;
78555;SDS011;67851;51.354;7.744;2023-08-07T13:24:34;10.30;;;2.55;;
78555;SDS011;67851;51.354;7.744;2023-08-07T13:27:00;7.00;;;2.28;;
78555;SDS011;67851;51.354;7.744;2023-08-07T13:29:26;8.55;;;2.28;;
78555;SDS011;67851;51.354;7.744;2023-08-07T13:31:54;9.98;;;2.85;;
78555;SDS011;67851;51.354;7.744;2023-08-07T13:34:20;9.30;;;2.20;;
78555;SDS011;67851;51.354;7.744;2023-08-07T13:36:45;5.60;;;2.35;;
78555;SDS011;67851;51.354;7.744;2023-08-07T13:39:11;7.65;;;2.65;;
78555;SDS011;67851;51.354;7.744;2023-08-07T13:41:36;10.30;;;2.88;;
78555;SDS011;67851;51.354;7.744;2023-08-07T13:44:02;13.02;;;2.95;;
78555;SDS011;67851;51.354;7.744;2023-08-07T13:46:27;8.75;;;2.90;;
78555;SDS011;67851;51.354;7.744;2023-08-07T13:48:53;7.85;;;1.83;;
78555;SDS011;67851;51.354;7.744;2023-08-07T13:51:18;5.50;;;1.70;;
78555;SDS011;67851;51.354;7.744;2023-08-07T13:53:44;9.38;;;2.22;;
78555;SDS011;67851;51.354;7.744;2023-08-07T13:56:10;18.35;;;2.40;;
78555;SDS011;67851;51.354;7.744;2023-08-07T13:58:38;6.95;;;1.88;;
78555;SDS011;67851;51.354;7.744;2023-08-07T14:01:04;5.07;;;2.10;;
78555;SDS011;67851;51.354;7.744;2023-08-07T14:03:30;8.95;;;1.95;;
78555;SDS011;67851;51.354;7.744;2023-08-07T14:05:56;7.15;;;2.40;;
78555;SDS011;67851;51.354;7.744;2023-08-07T14:08:21;5.78;;;1.88;;
78555;SDS011;67851;51.354;7.744;2023-08-07T14:10:47;12.30;;;2.20;;
78555;SDS011;67851;51.354;7.744;2023-08-07T14:13:13;4.30;;;2.00;;
78555;SDS011;67851;51.354;7.744;2023-08-07T14:15:39;11.25;;;2.60;;
78555;SDS011;67851;51.354;7.744;2023-08-07T14:18:04;10.93;;;2.28;;
78555;SDS011;67851;51.354;7.744;2023-08-07T14:20:30;8.68;;;2.10;;
78555;SDS011;67851;51.354;7.744;2023-08-07T14:22:55;5.53;;;1.90;;
78555;SDS011;67851;51.354;7.744;2023-08-07T14:25:21;9.60;;;1.88;;
78555;SDS011;67851;51.354;7.744;2023-08-07T14:27:47;17.45;;;2.90;;
78555;SDS011;67851;51.354;7.744;2023-08-07T14:30:14;8.57;;;2.60;;
78555;SDS011;67851;51.354;7.744;2023-08-07T14:32:40;7.75;;;2.08;;
78555;SDS011;67851;51.354;7.744;2023-08-07T14:35:05;11.80;;;3.03;;
78555;SDS011;67851;51.354;7.744;2023-08-07T14:37:31;8.52;;;2.50;;
78555;SDS011;67851;51.354;7.744;2023-08-07T14:39:57;5.65;;;2.03;;
78555;SDS011;67851;51.354;7.744;2023-08-07T14:42:23;8.90;;;2.17;;
78555;SDS011;67851;51.354;7.744;2023-08-07T14:44:49;8.07;;;1.73;;
78555;SDS011;67851;51.354;7.744;2023-08-07T14:47:30;5.38;;;1.88;;
78555;SDS011;67851;51.354;7.744;2023-08-07T14:49:58;9.90;;;2.45;;
78555;SDS011;67851;51.354;7.744;2023-08-07T14:52:24;9.52;;;2.35;;
78555;SDS011;67851;51.354;7.744;2023-08-07T14:54:50;8.93;;;2.88;;
78555;SDS011;67851;51.354;7.744;2023-08-07T14:57:15;11.02;;;2.42;;
78555;SDS011;67851;51.354;7.744;2023-08-07T14:59:40;9.45;;;2.40;;
78555;SDS011;67851;51.354;7.744;2023-08-07T15:02:06;8.65;;;2.15;;
78555;SDS011;67851;51.354;7.744;2023-08-07T15:04:31;9.68;;;1.90;;
78555;SDS011;67851;51.354;7.744;2023-08-07T15:06:57;3.97;;;1.40;;
78555;SDS011;67851;51.354;7.744;2023-08-07T15:09:22;7.50;;;2.15;;
78555;SDS011;67851;51.354;7.744;2023-08-07T15:11:47;6.43;;;2.03;;
78555;SDS011;67851;51.354;7.744;2023-08-07T15:14:13;7.57;;;2.47;;
78555;SDS011;67851;51.354;7.744;2023-08-07T15:16:38;7.63;;;2.45;;
78555;SDS011;67851;51.354;7.744;2023-08-07T15:19:04;5.38;;;1.73;;
78555;SDS011;67851;51.354;7.744;2023-08-07T15:21:30;5.07;;;1.77;;
78555;SDS011;67851;51.354;7.744;2023-08-07T15:23:55;6.97;;;2.00;;
78555;SDS011;67851;51.354;7.744;2023-08-07T15:26:21;12.80;;;1.88;;
78555;SDS011;67851;51.354;7.744;2023-08-07T15:28:46;8.60;;;2.17;;
78555;SDS011;67851;51.354;7.744;2023-08-07T15:31:12;7.93;;;2.25;;
78555;SDS011;67851;51.354;7.744;2023-08-07T15:33:38;7.18;;;2.53;;
78555;SDS011;67851;51.354;7.744;2023-08-07T15:36:03;7.82;;;1.90;;
78555;SDS011;67851;51.354;7.744;2023-08-07T15:38:29;11.65;;;1.80;;
78555;SDS011;67851;51.354;7.744;2023-08-07T15:40:56;4.93;;;1.80;;
78555;SDS011;67851;51.354;7.744;2023-08-07T15:43:21;8.38;;;1.83;;
78555;SDS011;67851;51.354;7.744;2023-08-07T15:45:50;6.55;;;2.20;;
78555;SDS011;67851;51.354;7.744;2023-08-07T15:48:16;8.55;;;2.22;;
78555;SDS011;67851;51.354;7.744;2023-08-07T15:50:42;7.38;;;1.90;;
78555;SDS011;67851;51.354;7.744;2023-08-07T15:53:08;4.68;;;2.35;;
78555;SDS011;67851;51.354;7.744;2023-08-07T15:55:34;5.85;;;2.00;;
78555;SDS011;67851;51.354;7.744;2023-08-07T15:58:03;6.63;;;1.85;;
78555;SDS011;67851;51.354;7.744;2023-08-07T16:00:31;6.43;;;1.85;;
78555;SDS011;67851;51.354;7.744;2023-08-07T16:03:05;7.80;;;1.83;;
78555;SDS011;67851;51.354;7.744;2023-08-07T16:05:33;12.95;;;1.60;;
78555;SDS011;67851;51.354;7.744;2023-08-07T16:08:00;8.85;;;2.10;;
78555;SDS011;67851;51.354;7.744;2023-08-07T16:10:26;5.00;;;1.85;;
78555;SDS011;67851;51.354;7.744;2023-08-07T16:12:52;6.53;;;2.20;;
78555;SDS011;67851;51.354;7.744;2023-08-07T16:17:48;5.10;;;1.58;;
78555;SDS011;67851;51.354;7.744;2023-08-07T16:20:14;13.35;;;1.90;;
78555;SDS011;67851;51.354;7.744;2023-08-07T16:22:41;7.13;;;1.90;;
78555;SDS011;67851;51.354;7.744;2023-08-07T16:25:07;4.25;;;1.33;;
78555;SDS011;67851;51.354;7.744;2023-08-07T16:27:34;4.97;;;1.70;;
78555;SDS011;67851;51.354;7.744;2023-08-07T16:30:09;6.32;;;1.52;;
78555;SDS011;67851;51.354;7.744;2023-08-07T16:36:13;6.68;;;1.67;;
78555;SDS011;67851;51.354;7.744;2023-08-07T16:39:32;4.45;;;1.52;;
78555;SDS011;67851;51.354;7.744;2023-08-07T16:42:38;4.88;;;1.60;;
78555;SDS011;67851;51.354;7.744;2023-08-07T16:49:05;8.85;;;1.63;;
78555;SDS011;67851;51.354;7.744;2023-08-07T16:51:32;7.45;;;1.65;;
78555;SDS011;67851;51.354;7.744;2023-08-07T16:54:00;7.65;;;1.60;;
78555;SDS011;67851;51.354;7.744;2023-08-07T16:56:33;7.05;;;1.60;;
78555;SDS011;67851;51.354;7.744;2023-08-07T16:59:00;4.00;;;1.55;;
78555;SDS011;67851;51.354;7.744;2023-08-07T17:01:29;5.32;;;2.10;;
78555;SDS011;67851;51.354;7.744;2023-08-07T17:04:13;6.43;;;1.25;;
78555;SDS011;67851;51.354;7.744;2023-08-07T17:06:58;4.47;;;1.70;;
78555;SDS011;67851;51.354;7.744;2023-08-07T17:10:29;4.20;;;1.42;;
78555;SDS011;67851;51.354;7.744;2023-08-07T17:12:56;9.40;;;2.05;;
78555;SDS011;67851;51.354;7.744;2023-08-07T17:15:26;7.13;;;1.52;;
78555;SDS011;67851;51.354;7.744;2023-08-07T17:25:52;3.53;;;1.60;;
78555;SDS011;67851;51.354;7.744;2023-08-07T17:31:29;6.00;;;1.80;;
78555;SDS011;67851;51.354;7.744;2023-08-07T17:39:02;6.35;;;1.67;;
78555;SDS011;67851;51.354;7.744;2023-08-07T17:41:33;8.52;;;2.40;;
78555;SDS011;67851;51.354;7.744;2023-08-07T17:45:20;6.03;;;2.00;;
78555;SDS011;67851;51.354;7.744;2023-08-07T17:48:14;5.13;;;1.90;;
78555;SDS011;67851;51.354;7.744;2023-08-07T17:55:31;6.55;;;2.30;;
78555;SDS011;67851;51.354;7.744;2023-08-07T18:01:59;4.53;;;2.10;;
78555;SDS011;67851;51.354;7.744;2023-08-07T18:04:41;10.75;;;2.67;;
78555;SDS011;67851;51.354;7.744;2023-08-07T18:08:20;4.93;;;1.77;;
78555;SDS011;67851;51.354;7.744;2023-08-07T19:05:45;16.52;;;5.80;;
78555;SDS011;67851;51.354;7.744;2023-08-07T19:08:18;11.63;;;4.20;;